Wetterdaten: Woche 17.10.16 - 23.10.16 (KW42)
Datum Zeit Temperatur Luftfeuchte Luftdruck Niederschlag Windrichtung Sonnenschein Solar Wind
17.10.2016 00:00 8,0 C 99 % 1021,7 hPa 0,0 l/m N 0,00 h 0 W/m 0,0 km/h (0 Bft)
17.10.2016 01:00 8,5 C 99 % 1021,8 hPa 0,0 l/m NO 0,00 h 0 W/m 0,0 km/h (0 Bft)
17.10.2016 02:00 8,6 C 99 % 1022,3 hPa 0,0 l/m S-SO 0,00 h 0 W/m 9,9 km/h (2 Bft)
17.10.2016 03:00 8,5 C 99 % 1022,4 hPa 0,0 l/m SW 0,00 h 0 W/m 7,9 km/h (2 Bft)
17.10.2016 04:00 8,3 C 100 % 1022,2 hPa 0,0 l/m SW 0,00 h 0 W/m 5,0 km/h (1 Bft)
17.10.2016 05:00 8,0 C 100 % 1022,3 hPa 0,2 l/m SW 0,00 h 0 W/m 4,8 km/h (1 Bft)
17.10.2016 06:00 7,7 C 100 % 1022,3 hPa 0,0 l/m N 0,00 h 0 W/m 0,0 km/h (0 Bft)
17.10.2016 07:00 7,3 C 100 % 1022,1 hPa 0,0 l/m N 0,00 h 7 W/m 0,3 km/h (0 Bft)
17.10.2016 08:00 7,2 C 100 % 1022,0 hPa 0,0 l/m N 0,00 h 34 W/m 0,3 km/h (0 Bft)
17.10.2016 09:00 7,5 C 100 % 1022,2 hPa 0,0 l/m N 0,00 h 106 W/m 0,0 km/h (0 Bft)
17.10.2016 10:00 8,7 C 100 % 1022,4 hPa 0,0 l/m N 0,25 h 200 W/m 0,0 km/h (0 Bft)
17.10.2016 11:00 11,6 C 99 % 1022,1 hPa 0,0 l/m S-SW 1,00 h 347 W/m 5,2 km/h (1 Bft)
17.10.2016 12:00 13,8 C 89 % 1021,5 hPa 0,0 l/m S-SW 1,00 h 350 W/m 4,1 km/h (1 Bft)
17.10.2016 13:00 15,1 C 82 % 1021,2 hPa 0,0 l/m S-SW 1,00 h 359 W/m 11,7 km/h (2 Bft)
17.10.2016 14:00 16,0 C 81 % 1020,5 hPa 0,0 l/m S-SW 0,83 h 316 W/m 8,2 km/h (2 Bft)
17.10.2016 15:00 16,8 C 79 % 1020,3 hPa 0,0 l/m S-SW 0,50 h 235 W/m 7,9 km/h (2 Bft)
17.10.2016 16:00 15,6 C 82 % 1020,2 hPa 0,0 l/m S-SW 0,00 h 99 W/m 11,7 km/h (2 Bft)
17.10.2016 17:00 14,8 C 80 % 1020,7 hPa 0,0 l/m W 0,00 h 26 W/m 11,8 km/h (2 Bft)
17.10.2016 18:00 13,3 C 83 % 1021,6 hPa 0,0 l/m N 0,00 h 5 W/m 0,4 km/h (0 Bft)
17.10.2016 19:00 12,4 C 91 % 1022,0 hPa 0,0 l/m N 0,00 h 0 W/m 0,0 km/h (0 Bft)
17.10.2016 20:00 11,9 C 95 % 1022,4 hPa 0,8 l/m NW 0,00 h 0 W/m 1,2 km/h (1 Bft)
17.10.2016 21:00 11,2 C 97 % 1022,4 hPa 1,8 l/m W-NW 0,00 h 0 W/m 5,9 km/h (2 Bft)
17.10.2016 22:00 10,7 C 97 % 1022,5 hPa 0,2 l/m N 0,00 h 0 W/m 0,4 km/h (0 Bft)
17.10.2016 23:00 10,3 C 98 % 1022,0 hPa 0,4 l/m N 0,00 h 0 W/m 0,0 km/h (0 Bft)
18.10.2016 00:00 10,2 C 98 % 1021,8 hPa 0,0 l/m N 0,00 h 0 W/m 0,0 km/h (0 Bft)
18.10.2016 01:00 10,2 C 99 % 1021,6 hPa 0,2 l/m N 0,00 h 0 W/m 0,3 km/h (0 Bft)
18.10.2016 02:00 10,4 C 99 % 1021,5 hPa 0,2 l/m N 0,00 h 0 W/m 0,0 km/h (0 Bft)
18.10.2016 03:00 10,6 C 99 % 1021,2 hPa 0,4 l/m W-NW 0,00 h 0 W/m 4,7 km/h (1 Bft)
18.10.2016 04:00 10,8 C 99 % 1021,0 hPa 1,2 l/m W-NW 0,00 h 0 W/m 1,3 km/h (1 Bft)
18.10.2016 05:00 10,7 C 99 % 1020,8 hPa 0,6 l/m SW 0,00 h 0 W/m 7,1 km/h (2 Bft)
18.10.2016 06:00 10,5 C 99 % 1020,7 hPa 0,2 l/m SW 0,00 h 0 W/m 7,2 km/h (2 Bft)
18.10.2016 07:00 10,4 C 99 % 1020,7 hPa 0,4 l/m SW 0,00 h 0 W/m 2,0 km/h (1 Bft)
18.10.2016 08:00 10,4 C 99 % 1021,0 hPa 0,4 l/m W-SW 0,00 h 22 W/m 4,3 km/h (1 Bft)
18.10.2016 09:00 10,2 C 99 % 1021,5 hPa 0,0 l/m W-SW 0,17 h 93 W/m 3,2 km/h (1 Bft)
18.10.2016 10:00 11,2 C 98 % 1021,8 hPa 0,0 l/m N 0,00 h 131 W/m 1,2 km/h (1 Bft)
18.10.2016 11:00 11,9 C 96 % 1021,9 hPa 0,0 l/m W-SW 0,17 h 207 W/m 6,1 km/h (2 Bft)
18.10.2016 12:00 13,0 C 90 % 1021,7 hPa 0,0 l/m W-SW 0,33 h 275 W/m 9,1 km/h (2 Bft)
18.10.2016 13:00 12,4 C 91 % 1021,4 hPa 0,4 l/m NW 0,08 h 202 W/m 7,1 km/h (2 Bft)
18.10.2016 14:00 11,7 C 93 % 1021,0 hPa 0,8 l/m W-NW 0,00 h 127 W/m 9,7 km/h (2 Bft)
18.10.2016 15:00 11,3 C 94 % 1020,7 hPa 0,6 l/m W-NW 0,08 h 129 W/m 8,6 km/h (2 Bft)
18.10.2016 16:00 11,7 C 93 % 1020,6 hPa 0,0 l/m W-NW 0,00 h 70 W/m 5,5 km/h (1 Bft)
18.10.2016 17:00 11,2 C 94 % 1020,5 hPa 0,0 l/m W-NW 0,25 h 57 W/m 3,9 km/h (1 Bft)
18.10.2016 18:00 10,4 C 94 % 1020,7 hPa 0,2 l/m W-NW 0,25 h 14 W/m 3,1 km/h (1 Bft)
18.10.2016 19:00 9,9 C 96 % 1020,7 hPa 0,0 l/m W 0,00 h 0 W/m 1,9 km/h (1 Bft)
18.10.2016 20:00 9,7 C 98 % 1020,5 hPa 0,0 l/m N 0,00 h 0 W/m 0,0 km/h (0 Bft)
18.10.2016 21:00 9,3 C 98 % 1020,3 hPa 0,0 l/m W 0,00 h 0 W/m 1,5 km/h (1 Bft)
18.10.2016 22:00 9,1 C 98 % 1020,4 hPa 0,0 l/m W 0,00 h 0 W/m 6,6 km/h (2 Bft)
18.10.2016 23:00 9,1 C 98 % 1020,1 hPa 0,0 l/m W-SW 0,00 h 0 W/m 12,1 km/h (2 Bft)
19.10.2016 00:00 8,9 C 97 % 1019,8 hPa 0,0 l/m W-SW 0,00 h 0 W/m 8,0 km/h (2 Bft)
19.10.2016 01:00 8,8 C 98 % 1019,4 hPa 0,0 l/m W-SW 0,00 h 0 W/m 4,7 km/h (1 Bft)
19.10.2016 02:00 8,9 C 98 % 1019,1 hPa 0,0 l/m W-SW 0,00 h 0 W/m 11,8 km/h (2 Bft)
19.10.2016 03:00 9,1 C 97 % 1018,4 hPa 0,2 l/m W-SW 0,00 h 0 W/m 14,2 km/h (3 Bft)
19.10.2016 04:00 9,1 C 95 % 1018,0 hPa 0,0 l/m W-SW 0,00 h 0 W/m 19,3 km/h (3 Bft)
19.10.2016 05:00 8,9 C 93 % 1017,7 hPa 0,0 l/m W-SW 0,00 h 0 W/m 21,8 km/h (4 Bft)
19.10.2016 06:00 8,7 C 92 % 1017,7 hPa 0,0 l/m W-SW 0,00 h 0 W/m 22,6 km/h (4 Bft)
19.10.2016 07:00 8,6 C 92 % 1017,7 hPa 0,0 l/m W-SW 0,00 h 0 W/m 22,4 km/h (4 Bft)
19.10.2016 08:00 8,6 C 92 % 1018,2 hPa 0,0 l/m W-SW 0,00 h 9 W/m 16,5 km/h (3 Bft)
19.10.2016 09:00 8,4 C 93 % 1018,6 hPa 0,2 l/m W-SW 0,00 h 33 W/m 11,9 km/h (2 Bft)
19.10.2016 10:00 8,7 C 95 % 1018,5 hPa 0,0 l/m W-SW 0,00 h 150 W/m 10,7 km/h (2 Bft)
19.10.2016 11:00 8,9 C 92 % 1018,3 hPa 0,0 l/m W-NW 0,00 h 115 W/m 14,1 km/h (3 Bft)
19.10.2016 12:00 9,3 C 90 % 1017,8 hPa 0,0 l/m W-NW 0,17 h 234 W/m 11,6 km/h (2 Bft)
19.10.2016 13:00 9,1 C 91 % 1017,3 hPa 0,2 l/m W 0,00 h 152 W/m 11,7 km/h (2 Bft)
19.10.2016 14:00 9,7 C 90 % 1016,7 hPa 0,0 l/m W 0,00 h 183 W/m 11,4 km/h (2 Bft)
19.10.2016 15:00 10,1 C 85 % 1016,2 hPa 0,0 l/m W-SW 0,00 h 171 W/m 11,3 km/h (2 Bft)
19.10.2016 16:00 9,5 C 89 % 1016,0 hPa 0,0 l/m W-SW 0,00 h 85 W/m 11,0 km/h (2 Bft)
19.10.2016 17:00 9,2 C 88 % 1015,9 hPa 0,0 l/m W-SW 0,00 h 61 W/m 10,9 km/h (2 Bft)
19.10.2016 18:00 8,8 C 89 % 1015,8 hPa 0,0 l/m W-SW 0,00 h 8 W/m 8,2 km/h (2 Bft)
19.10.2016 19:00 8,1 C 91 % 1015,9 hPa 0,0 l/m W-SW 0,00 h 0 W/m 7,1 km/h (2 Bft)
19.10.2016 20:00 7,6 C 91 % 1015,9 hPa 0,0 l/m W-SW 0,00 h 0 W/m 9,1 km/h (2 Bft)
19.10.2016 21:00 7,3 C 90 % 1015,8 hPa 0,0 l/m W-SW 0,00 h 0 W/m 9,8 km/h (2 Bft)
19.10.2016 22:00 6,9 C 91 % 1015,7 hPa 0,0 l/m SW 0,00 h 0 W/m 11,8 km/h (2 Bft)
19.10.2016 23:00 6,6 C 91 % 1015,5 hPa 0,0 l/m W-SW 0,00 h 0 W/m 16,0 km/h (3 Bft)
20.10.2016 00:00 6,2 C 92 % 1015,4 hPa 0,0 l/m W-SW 0,00 h 0 W/m 14,2 km/h (3 Bft)
20.10.2016 01:00 5,8 C 92 % 1015,4 hPa 0,0 l/m W-SW 0,00 h 0 W/m 14,1 km/h (3 Bft)
20.10.2016 02:00 5,5 C 93 % 1015,5 hPa 0,0 l/m W-SW 0,00 h 0 W/m 12,6 km/h (3 Bft)
20.10.2016 03:00 5,8 C 94 % 1015,3 hPa 0,0 l/m SW 0,00 h 0 W/m 12,2 km/h (2 Bft)
20.10.2016 04:00 5,7 C 94 % 1014,8 hPa 0,0 l/m W-SW 0,00 h 0 W/m 12,1 km/h (2 Bft)
20.10.2016 05:00 5,3 C 94 % 1014,4 hPa 0,0 l/m W-SW 0,00 h 0 W/m 14,5 km/h (3 Bft)
20.10.2016 06:00 4,7 C 95 % 1014,5 hPa 0,0 l/m SW 0,00 h 0 W/m 1,1 km/h (0 Bft)
20.10.2016 07:00 4,4 C 96 % 1014,6 hPa 0,0 l/m SW 0,00 h 6 W/m 2,3 km/h (1 Bft)
20.10.2016 08:00 4,9 C 96 % 1014,8 hPa 0,0 l/m W-SW 0,08 h 32 W/m 9,7 km/h (2 Bft)
20.10.2016 09:00 6,2 C 94 % 1014,7 hPa 0,0 l/m SW 0,00 h 96 W/m 11,6 km/h (2 Bft)
20.10.2016 10:00 7,2 C 90 % 1014,5 hPa 0,0 l/m W-SW 0,50 h 268 W/m 20,0 km/h (4 Bft)
20.10.2016 11:00 8,5 C 82 % 1014,4 hPa 0,0 l/m W 0,50 h 284 W/m 22,6 km/h (4 Bft)
20.10.2016 12:00 8,8 C 79 % 1014,2 hPa 0,0 l/m W-SW 0,75 h 421 W/m 23,2 km/h (4 Bft)
20.10.2016 13:00 9,8 C 75 % 1013,5 hPa 0,0 l/m W-SW 0,33 h 239 W/m 25,9 km/h (4 Bft)
20.10.2016 14:00 9,8 C 73 % 1013,0 hPa 0,0 l/m W-SW 0,50 h 319 W/m 24,8 km/h (4 Bft)
20.10.2016 15:00 10,1 C 72 % 1012,8 hPa 0,0 l/m W-SW 0,33 h 209 W/m 19,6 km/h (3 Bft)
20.10.2016 16:00 9,9 C 71 % 1012,6 hPa 0,0 l/m W 0,17 h 117 W/m 21,6 km/h (4 Bft)
20.10.2016 17:00 9,3 C 74 % 1012,6 hPa 0,0 l/m W-SW 0,17 h 55 W/m 18,6 km/h (3 Bft)
20.10.2016 18:00 7,7 C 80 % 1012,8 hPa 0,0 l/m W-SW 0,08 h 10 W/m 11,5 km/h (2 Bft)
20.10.2016 19:00 6,8 C 85 % 1012,9 hPa 0,0 l/m W-SW 0,00 h 0 W/m 15,0 km/h (3 Bft)
20.10.2016 20:00 5,9 C 89 % 1012,6 hPa 0,0 l/m SW 0,00 h 0 W/m 8,7 km/h (2 Bft)
20.10.2016 21:00 5,6 C 90 % 1012,4 hPa 0,0 l/m SW 0,00 h 0 W/m 10,1 km/h (2 Bft)
20.10.2016 22:00 4,6 C 93 % 1012,6 hPa 0,0 l/m SW 0,00 h 0 W/m 8,6 km/h (2 Bft)
20.10.2016 23:00 4,9 C 93 % 1012,6 hPa 0,0 l/m SW 0,00 h 0 W/m 13,7 km/h (3 Bft)
21.10.2016 00:00 5,0 C 94 % 1012,8 hPa 0,0 l/m SW 0,00 h 0 W/m 14,5 km/h (3 Bft)
21.10.2016 01:00 4,9 C 95 % 1012,5 hPa 0,0 l/m SW 0,00 h 0 W/m 13,4 km/h (3 Bft)
21.10.2016 02:00 5,4 C 95 % 1012,3 hPa 0,0 l/m SW 0,00 h 0 W/m 15,0 km/h (3 Bft)
21.10.2016 03:00 6,3 C 94 % 1012,1 hPa 0,2 l/m W-SW 0,00 h 0 W/m 19,8 km/h (4 Bft)
21.10.2016 04:00 6,3 C 93 % 1011,8 hPa 1,2 l/m W-SW 0,00 h 0 W/m 18,8 km/h (3 Bft)
21.10.2016 05:00 6,0 C 95 % 1011,8 hPa 3,2 l/m W-SW 0,00 h 0 W/m 9,1 km/h (2 Bft)
21.10.2016 06:00 5,8 C 96 % 1012,0 hPa 0,2 l/m SW 0,00 h 0 W/m 8,6 km/h (2 Bft)
21.10.2016 07:00 5,6 C 97 % 1012,0 hPa 0,0 l/m W-SW 0,00 h 0 W/m 6,4 km/h (2 Bft)
21.10.2016 08:00 5,5 C 97 % 1012,6 hPa 0,2 l/m N 0,00 h 20 W/m 0,0 km/h (0 Bft)
21.10.2016 09:00 5,9 C 97 % 1013,0 hPa 0,0 l/m W-SW 0,00 h 68 W/m 6,2 km/h (2 Bft)
21.10.2016 10:00 6,0 C 97 % 1013,2 hPa 0,4 l/m W 0,00 h 48 W/m 7,5 km/h (2 Bft)
21.10.2016 11:00 6,0 C 97 % 1013,7 hPa 0,0 l/m N 0,00 h 70 W/m 0,5 km/h (0 Bft)
21.10.2016 12:00 6,2 C 96 % 1014,0 hPa 0,0 l/m N 0,00 h 54 W/m 1,3 km/h (1 Bft)
21.10.2016 13:00 6,3 C 96 % 1013,9 hPa 0,0 l/m N 0,00 h 98 W/m 0,0 km/h (0 Bft)
21.10.2016 14:00 6,9 C 91 % 1013,8 hPa 0,0 l/m W 0,00 h 130 W/m 4,7 km/h (1 Bft)
21.10.2016 15:00 6,6 C 94 % 1014,1 hPa 0,0 l/m SW 0,00 h 75 W/m 9,4 km/h (2 Bft)
21.10.2016 16:00 6,7 C 94 % 1014,4 hPa 0,0 l/m SW 0,00 h 70 W/m 8,9 km/h (2 Bft)
21.10.2016 17:00 6,4 C 94 % 1014,6 hPa 0,0 l/m SW 0,00 h 14 W/m 8,9 km/h (2 Bft)
21.10.2016 18:00 5,8 C 94 % 1014,5 hPa 0,0 l/m W-SW 0,08 h 10 W/m 8,5 km/h (2 Bft)
21.10.2016 19:00 5,3 C 94 % 1014,9 hPa 0,0 l/m SW 0,00 h 0 W/m 3,7 km/h (1 Bft)
21.10.2016 20:00 5,3 C 95 % 1015,4 hPa 0,0 l/m SW 0,00 h 0 W/m 5,9 km/h (2 Bft)
21.10.2016 21:00 5,3 C 95 % 1015,5 hPa 0,0 l/m N 0,00 h 0 W/m 0,9 km/h (0 Bft)
21.10.2016 22:00 5,2 C 95 % 1015,7 hPa 0,0 l/m SW 0,00 h 0 W/m 2,7 km/h (1 Bft)
21.10.2016 23:00 5,2 C 95 % 1015,6 hPa 0,0 l/m N 0,00 h 0 W/m 0,0 km/h (0 Bft)
22.10.2016 00:00 5,0 C 96 % 1015,3 hPa 0,0 l/m N 0,00 h 0 W/m 0,0 km/h (0 Bft)
22.10.2016 01:00 4,8 C 96 % 1015,0 hPa 0,0 l/m SW 0,00 h 0 W/m 2,0 km/h (1 Bft)
22.10.2016 02:00 4,8 C 96 % 1014,6 hPa 0,0 l/m N 0,00 h 0 W/m 0,0 km/h (0 Bft)
22.10.2016 03:00 4,8 C 96 % 1014,3 hPa 0,0 l/m N 0,00 h 0 W/m 0,3 km/h (0 Bft)
22.10.2016 04:00 4,4 C 96 % 1014,1 hPa 0,0 l/m SW 0,00 h 0 W/m 2,8 km/h (1 Bft)
22.10.2016 05:00 3,7 C 96 % 1014,0 hPa 0,0 l/m N 0,00 h 0 W/m 0,0 km/h (0 Bft)
22.10.2016 06:00 2,9 C 96 % 1014,0 hPa 0,0 l/m N 0,00 h 0 W/m 0,0 km/h (0 Bft)
22.10.2016 07:00 2,6 C 97 % 1014,1 hPa 0,0 l/m SW 0,00 h 6 W/m 4,8 km/h (1 Bft)
22.10.2016 08:00 2,8 C 97 % 1014,4 hPa 0,0 l/m SW 0,58 h 53 W/m 0,4 km/h (0 Bft)
22.10.2016 09:00 3,5 C 98 % 1014,5 hPa 0,0 l/m SW 0,92 h 193 W/m 5,2 km/h (1 Bft)
22.10.2016 10:00 5,3 C 98 % 1014,4 hPa 0,0 l/m SW 1,00 h 330 W/m 9,4 km/h (2 Bft)
22.10.2016 11:00 7,4 C 88 % 1014,2 hPa 0,0 l/m SW 0,67 h 350 W/m 12,0 km/h (2 Bft)
22.10.2016 12:00 8,4 C 77 % 1014,1 hPa 0,0 l/m W-SW 0,83 h 475 W/m 13,6 km/h (3 Bft)
22.10.2016 13:00 9,9 C 72 % 1013,6 hPa 0,0 l/m SW 1,00 h 529 W/m 14,4 km/h (3 Bft)
22.10.2016 14:00 10,1 C 69 % 1013,2 hPa 0,0 l/m W-NW 1,00 h 473 W/m 9,3 km/h (2 Bft)
22.10.2016 15:00 10,9 C 64 % 1012,8 hPa 0,0 l/m W 1,00 h 396 W/m 11,7 km/h (2 Bft)
22.10.2016 16:00 10,3 C 66 % 1012,7 hPa 0,0 l/m W-NW 0,92 h 198 W/m 4,3 km/h (1 Bft)
22.10.2016 17:00 9,1 C 74 % 1012,5 hPa 0,0 l/m N 0,00 h 51 W/m 0,0 km/h (0 Bft)
22.10.2016 18:00 6,4 C 88 % 1013,0 hPa 0,0 l/m N 0,08 h 10 W/m 0,3 km/h (0 Bft)
22.10.2016 19:00 5,1 C 92 % 1013,4 hPa 0,0 l/m N 0,00 h 0 W/m 0,0 km/h (0 Bft)
22.10.2016 20:00 4,1 C 94 % 1013,6 hPa 0,0 l/m N 0,00 h 0 W/m 0,0 km/h (0 Bft)
22.10.2016 21:00 3,5 C 96 % 1013,9 hPa 0,0 l/m N 0,00 h 0 W/m 0,0 km/h (0 Bft)
22.10.2016 22:00 3,0 C 96 % 1014,0 hPa 0,0 l/m N 0,00 h 0 W/m 0,0 km/h (0 Bft)
22.10.2016 23:00 2,1 C 96 % 1013,6 hPa 0,0 l/m N 0,00 h 0 W/m 0,0 km/h (0 Bft)
23.10.2016 00:00 1,6 C 97 % 1013,4 hPa 0,0 l/m N 0,00 h 0 W/m 0,0 km/h (0 Bft)
23.10.2016 01:00 0,9 C 97 % 1013,2 hPa 0,0 l/m N 0,00 h 0 W/m 0,0 km/h (0 Bft)
23.10.2016 02:00 0,5 C 97 % 1012,9 hPa 0,0 l/m N 0,00 h 0 W/m 0,0 km/h (0 Bft)
23.10.2016 03:00 0,5 C 97 % 1012,6 hPa 0,0 l/m N 0,00 h 0 W/m 0,0 km/h (0 Bft)
23.10.2016 04:00 0,9 C 98 % 1012,2 hPa 0,0 l/m W-NW 0,00 h 0 W/m 1,6 km/h (1 Bft)
23.10.2016 05:00 1,4 C 98 % 1011,9 hPa 0,2 l/m W-NW 0,00 h 0 W/m 4,5 km/h (1 Bft)
23.10.2016 06:00 1,4 C 98 % 1011,9 hPa 0,0 l/m W-NW 0,00 h 0 W/m 4,7 km/h (1 Bft)
23.10.2016 07:00 1,3 C 98 % 1011,8 hPa 0,0 l/m W-NW 0,00 h 5 W/m 2,0 km/h (1 Bft)
23.10.2016 08:00 1,5 C 98 % 1011,9 hPa 0,0 l/m W-NW 0,08 h 34 W/m 4,5 km/h (1 Bft)
23.10.2016 09:00 2,4 C 98 % 1012,1 hPa 0,0 l/m W-NW 0,08 h 77 W/m 3,2 km/h (1 Bft)
23.10.2016 10:00 3,7 C 97 % 1012,1 hPa 0,0 l/m W-NW 0,08 h 140 W/m 2,1 km/h (1 Bft)
23.10.2016 11:00 5,4 C 95 % 1012,0 hPa 0,0 l/m N 0,08 h 179 W/m 1,7 km/h (1 Bft)
23.10.2016 12:00 7,6 C 89 % 1011,2 hPa 0,0 l/m W-NW 0,25 h 229 W/m 4,3 km/h (1 Bft)
23.10.2016 13:00 8,3 C 89 % 1011,0 hPa 0,0 l/m W-NW 0,00 h 105 W/m 2,5 km/h (1 Bft)
23.10.2016 14:00 8,1 C 92 % 1011,4 hPa 0,0 l/m W-NW 0,00 h 96 W/m 7,5 km/h (2 Bft)
23.10.2016 15:00 8,5 C 93 % 1011,0 hPa 0,0 l/m N 0,00 h 136 W/m 0,4 km/h (0 Bft)
23.10.2016 16:00 9,0 C 94 % 1010,7 hPa 0,6 l/m N 0,00 h 48 W/m 0,0 km/h (0 Bft)
23.10.2016 17:00 8,7 C 96 % 1011,1 hPa 1,6 l/m N 0,00 h 21 W/m 0,5 km/h (0 Bft)
23.10.2016 18:00 8,4 C 97 % 1011,5 hPa 3,2 l/m N-NW 0,00 h 0 W/m 0,1 km/h (0 Bft)
23.10.2016 19:00 8,2 C 98 % 1012,1 hPa 2,0 l/m N 0,00 h 0 W/m 1,5 km/h (1 Bft)
23.10.2016 20:00 8,2 C 98 % 1012,1 hPa 2,0 l/m N 0,00 h 0 W/m 0,0 km/h (0 Bft)
23.10.2016 21:00 8,2 C 98 % 1012,1 hPa 0,8 l/m N 0,00 h 0 W/m 0,0 km/h (0 Bft)
23.10.2016 22:00 8,2 C 98 % 1012,1 hPa 0,0 l/m N 0,00 h 0 W/m 0,0 km/h (0 Bft)
23.10.2016 23:00 8,2 C 99 % 1012,1 hPa 0,2 l/m N 0,00 h 0 W/m 0,0 km/h (0 Bft)
Min-Datum _ 23.10.16 22.10.16 23.10.16 - - - - 17.10.16
_ Min-Zeit 02:40 15:15 17:00 - - - - 00:00
Minimum _ 0,4 C 63 % 1010,4 hPa - - - - 0,0 km/h (0 Bft)
Max-Datum _ 17.10.16 17.10.16 17.10.16 23.10.16 - 17.10.16 18.10.16 20.10.16
_ Max-Zeit 15:35 03:35 22:15 18:05 - 10:45 12:20 16:40
Maximum _ 17,1 C 100 % 1022,7 hPa 3,2 l/m - 0,08 h 802 W/m 32,2 km/h
W-SW (5 Bft)
Durchschnitt _ 7,6 C 93 % 1016,2 hPa #25,6 l/m W-SW #18:10 h 143 W/m 6,9 km/h (2 Bft)